Time;durP1;ratioP1;P1;durP2;ratioP2;P2;SDS_P1;SDS_P2;PMS_P1;PMS_P2;Temp;Humidity;BMP_temperature;BMP_pressure;BME280_temperature;BME280_humidity;BME280_pressure;Samples;Min_cycle;Max_cycle;Signal;HPM_P1;HPM_P2
2024/01/27 00:00:22;;;;;;;195.93;7.53;;;;;;;20.43;48.35;100527.00;7287161;19;129409;-34
2024/01/27 00:02:47;;;;;;;188.25;7.43;;;;;;;20.44;48.72;100536.53;7291161;19;130315;-35
2024/01/27 00:05:12;;;;;;;175.13;7.10;;;;;;;20.45;48.07;100539.03;7297910;19;130250;-40
2024/01/27 00:07:38;;;;;;;195.63;7.72;;;;;;;20.41;48.03;100539.38;7296483;19;131842;-38
2024/01/27 00:10:04;;;;;;;248.13;9.50;;;;;;;20.44;48.16;100544.38;7293811;19;130558;-34
2024/01/27 00:12:29;;;;;;;156.83;6.33;;;;;;;20.42;48.45;100539.25;7296976;19;131752;-38
2024/01/27 00:14:55;;;;;;;185.40;7.20;;;;;;;20.40;48.08;100542.91;7298264;19;134735;-41
2024/01/27 00:17:23;;;;;;;212.07;8.38;;;;;;;20.46;47.73;100537.25;7295334;19;129723;-36
2024/01/27 00:19:50;;;;;;;191.82;7.70;;;;;;;20.42;48.02;100541.03;7294150;19;131002;-38
2024/01/27 00:22:16;;;;;;;204.93;8.30;;;;;;;20.43;48.08;100534.84;7298125;19;129783;-40
2024/01/27 00:24:42;;;;;;;;;;;;;;;20.44;49.30;100534.72;7294375;19;131229;-36
2024/01/27 00:27:07;;;;;;;222.27;8.77;;;;;;;20.45;47.98;100530.34;7297056;19;129797;-36
2024/01/27 00:29:32;;;;;;;256.65;9.88;;;;;;;20.40;48.29;100543.75;7295065;19;129716;-40
2024/01/27 00:31:58;;;;;;;170.00;6.60;;;;;;;20.43;48.42;100545.28;7295200;19;131046;-40
2024/01/27 00:34:23;;;;;;;237.65;9.50;;;;;;;20.40;48.85;100548.13;7296289;19;131244;-39
2024/01/27 00:36:49;;;;;;;185.00;7.25;;;;;;;20.36;49.62;100539.66;7295230;19;132741;-39
2024/01/27 00:39:15;;;;;;;198.27;7.68;;;;;;;20.16;49.73;100534.19;7294727;19;130437;-40
2024/01/27 00:41:41;;;;;;;141.67;6.07;;;;;;;20.25;50.09;100550.03;7294617;19;131056;-38
2024/01/27 00:44:07;;;;;;;115.13;4.57;;;;;;;20.16;50.40;100568.94;7297262;19;131064;-37
2024/01/27 00:46:32;;;;;;;251.40;10.45;;;;;;;20.10;50.88;100569.34;7295430;19;129410;-38
2024/01/27 00:48:57;;;;;;;164.13;6.32;;;;;;;20.04;50.99;100572.41;7295884;19;130305;-38
2024/01/27 00:51:23;;;;;;;175.10;6.82;;;;;;;20.04;50.73;100571.56;7293289;19;130177;-41
2024/01/27 00:53:48;;;;;;;218.68;8.88;;;;;;;19.82;50.50;100550.47;7292663;19;131154;-41
2024/01/27 00:56:14;;;;;;;197.23;7.97;;;;;;;19.98;51.12;100572.00;7294054;19;129102;-37
2024/01/27 00:58:39;;;;;;;193.23;8.05;;;;;;;19.93;51.27;100592.34;7294455;19;132928;-38
2024/01/27 01:01:04;;;;;;;180.00;7.40;;;;;;;19.89;50.94;100583.03;7291956;19;130677;-40
2024/01/27 01:03:30;;;;;;;131.98;5.30;;;;;;;19.90;51.05;100592.56;7293949;19;129459;-39
2024/01/27 01:05:55;;;;;;;235.93;9.27;;;;;;;20.03;49.97;100585.56;7293461;19;129860;-40
2024/01/27 01:08:20;;;;;;;182.88;7.32;;;;;;;20.15;49.48;100608.22;7294197;19;129704;-36
2024/01/27 01:10:46;;;;;;;179.90;7.10;;;;;;;20.20;48.98;100598.28;7289851;19;130789;-37
2024/01/27 01:13:11;;;;;;;174.85;6.90;;;;;;;20.29;49.24;100608.13;7295561;19;131263;-40
2024/01/27 01:15:37;;;;;;;250.75;10.02;;;;;;;20.23;48.89;100598.09;7292916;19;131779;-40
2024/01/27 01:18:03;;;;;;;167.65;6.72;;;;;;;20.31;48.42;100606.25;7294732;19;131091;-40
2024/01/27 01:20:29;;;;;;;162.57;6.45;;;;;;;20.23;48.75;100587.66;7294730;19;133148;-40
2024/01/27 01:22:55;;;;;;;230.03;9.13;;;;;;;20.36;48.21;100604.97;7290220;19;131332;-41
2024/01/27 01:25:20;;;;;;;231.43;8.98;;;;;;;20.34;48.75;100621.69;7296121;19;130897;-37
2024/01/27 01:27:46;;;;;;;264.80;11.02;;;;;;;20.31;48.39;100617.50;7294771;19;130186;-34
2024/01/27 01:30:12;;;;;;;98.80;3.92;;;;;;;20.32;48.08;100619.19;7294023;19;130561;-37
2024/01/27 01:32:37;;;;;;;213.87;8.77;;;;;;;20.28;48.88;100619.53;7293361;19;130475;-40
2024/01/27 01:35:03;;;;;;;200.95;7.78;;;;;;;20.29;48.83;100623.78;7284765;19;130850;-36
2024/01/27 01:37:29;;;;;;;193.95;7.30;;;;;;;20.27;48.57;100621.28;7291825;19;129833;-37
2024/01/27 01:39:54;;;;;;;194.73;7.43;;;;;;;20.29;48.92;100634.22;7288579;19;131816;-38
2024/01/27 01:42:23;;;;;;;259.42;10.07;;;;;;;20.30;48.72;100625.44;7295162;19;130367;-40
2024/01/27 01:44:48;;;;;;;217.20;8.55;;;;;;;20.33;48.94;100612.16;7289232;19;129769;-45
2024/01/27 01:47:14;;;;;;;155.60;6.45;;;;;;;20.25;49.47;100627.53;7293254;19;129578;-43
2024/01/27 01:49:40;;;;;;;163.77;6.28;;;;;;;20.13;49.83;100625.75;7293575;19;130348;-39
2024/01/27 01:52:06;;;;;;;242.87;9.67;;;;;;;20.07;49.88;100618.31;7292659;19;130298;-38
2024/01/27 01:54:32;;;;;;;197.20;7.90;;;;;;;20.02;49.99;100623.88;7294000;19;129608;-44
2024/01/27 01:56:58;;;;;;;159.32;6.20;;;;;;;19.83;50.27;100604.34;7292835;19;129544;-40
2024/01/27 01:59:24;;;;;;;193.43;7.60;;;;;;;19.93;50.34;100629.69;7291571;19;130136;-37
2024/01/27 02:01:49;;;;;;;238.73;9.48;;;;;;;19.81;50.97;100607.06;7291002;19;131573;-42
2024/01/27 02:04:15;;;;;;;185.60;7.43;;;;;;;19.88;51.18;100623.16;7292266;19;129861;-44
2024/01/27 02:06:40;;;;;;;177.20;7.28;;;;;;;19.87;50.76;100626.66;7293133;19;129349;-37
2024/01/27 02:09:05;;;;;;;186.20;7.47;;;;;;;19.86;50.96;100625.00;7293915;19;130271;-39
2024/01/27 02:11:31;;;;;;;232.20;9.10;;;;;;;19.65;51.00;100606.41;7290978;19;129603;-39
2024/01/27 02:13:56;;;;;;;158.88;6.22;;;;;;;19.82;51.60;100628.75;7294735;19;131377;-40
2024/01/27 02:16:21;;;;;;;156.63;6.20;;;;;;;19.81;51.27;100630.56;7289525;19;130442;-42
2024/01/27 02:18:47;;;;;;;192.52;8.10;;;;;;;19.91;50.63;100634.22;7291886;19;131136;-39
2024/01/27 02:21:12;;;;;;;195.18;7.43;;;;;;;20.07;49.78;100629.63;7292039;19;130621;-40
2024/01/27 02:23:38;;;;;;;182.30;7.15;;;;;;;20.15;49.70;100634.34;7293816;19;129395;-39
2024/01/27 02:26:03;;;;;;;158.98;6.22;;;;;;;20.19;49.50;100639.25;7291364;19;131526;-40
2024/01/27 02:28:31;;;;;;;180.38;7.18;;;;;;;20.23;49.07;100624.22;7292534;19;130228;-39
2024/01/27 02:30:57;;;;;;;237.30;9.45;;;;;;;20.07;49.19;100607.88;7291128;19;130426;-44
2024/01/27 02:33:23;;;;;;;113.97;4.72;;;;;;;20.20;48.85;100619.19;7293543;19;130925;-41
2024/01/27 02:35:48;;;;;;;204.30;8.52;;;;;;;20.06;48.86;100606.22;7291228;19;131828;-40
2024/01/27 02:38:13;;;;;;;210.77;8.07;;;;;;;20.25;49.26;100637.97;7291671;19;132921;-39
2024/01/27 02:40:39;;;;;;;137.88;5.57;;;;;;;20.23;48.89;100639.88;7287947;19;132273;-37
2024/01/27 02:43:04;;;;;;;145.18;5.68;;;;;;;20.23;49.06;100629.44;7288318;19;129411;-43
2024/01/27 02:45:29;;;;;;;168.10;6.65;;;;;;;20.14;49.06;100619.59;7288907;19;129650;-42
2024/01/27 02:47:55;;;;;;;270.17;10.50;;;;;;;20.25;48.97;100651.03;7287727;19;130687;-40
2024/01/27 02:50:20;;;;;;;216.48;8.70;;;;;;;20.31;48.55;100648.03;7292314;19;132292;-41
2024/01/27 02:52:45;;;;;;;207.43;8.43;;;;;;;20.28;49.07;100651.66;7293493;19;130666;-39
2024/01/27 02:55:11;;;;;;;181.35;7.15;;;;;;;20.29;48.70;100653.34;7291401;19;129529;-45
2024/01/27 02:57:37;;;;;;;209.95;8.07;;;;;;;20.27;48.41;100654.38;7288368;19;130580;-42
2024/01/27 03:00:04;;;;;;;177.30;7.25;;;;;;;20.27;48.48;100657.84;7288136;19;130175;-41
2024/01/27 03:02:30;;;;;;;136.07;5.45;;;;;;;20.28;48.40;100658.69;7281458;19;131717;-41
2024/01/27 03:04:55;;;;;;;189.90;8.15;;;;;;;20.24;48.26;100662.44;7289625;19;130187;-40
2024/01/27 03:07:21;;;;;;;235.75;9.45;;;;;;;20.27;48.85;100670.91;7288568;19;129795;-44
2024/01/27 03:09:46;;;;;;;176.07;7.28;;;;;;;20.29;48.76;100665.56;7289505;19;129503;-39
2024/01/27 03:12:12;;;;;;;196.27;7.97;;;;;;;20.23;49.28;100672.03;7289716;19;129020;-38
2024/01/27 03:14:37;;;;;;;220.80;9.02;;;;;;;20.16;49.93;100670.78;7285735;19;129317;-42
2024/01/27 03:17:03;;;;;;;245.23;9.68;;;;;;;20.11;50.53;100682.44;7288869;19;129821;-39
2024/01/27 03:19:28;;;;;;;183.80;7.22;;;;;;;20.08;50.36;100687.88;7287380;19;131137;-38
2024/01/27 03:21:54;;;;;;;159.43;6.32;;;;;;;20.04;50.59;100687.25;7286808;19;130819;-39
2024/01/27 03:24:19;;;;;;;178.07;7.13;;;;;;;20.01;50.42;100687.47;7290015;19;131479;-44
2024/01/27 03:26:44;;;;;;;238.70;9.38;;;;;;;20.01;50.51;100697.06;7289635;19;130598;-46
2024/01/27 03:29:10;;;;;;;182.98;7.35;;;;;;;19.97;51.08;100699.03;7287788;19;130337;-40
2024/01/27 03:31:35;;;;;;;240.23;9.82;;;;;;;19.98;50.90;100692.88;7282658;19;132128;-38
2024/01/27 03:34:01;;;;;;;282.40;11.43;;;;;;;19.94;51.35;100691.41;7279706;19;131574;-39
2024/01/27 03:36:27;;;;;;;216.95;8.82;;;;;;;19.93;51.08;100688.91;7289930;19;130474;-43
2024/01/27 03:38:52;;;;;;;189.30;7.75;;;;;;;19.94;51.65;100701.00;7295753;19;130438;-40
2024/01/27 03:41:17;;;;;;;157.50;6.20;;;;;;;20.00;50.65;100700.63;7292546;19;132263;-40
2024/01/27 03:43:43;;;;;;;224.27;8.77;;;;;;;20.09;50.21;100700.00;7298178;19;129239;-39
2024/01/27 03:46:08;;;;;;;191.77;7.65;;;;;;;20.15;49.26;100700.44;7299613;19;131831;-41
2024/01/27 03:48:36;;;;;;;162.80;6.45;;;;;;;20.18;49.52;100702.03;7297866;19;131639;-39
2024/01/27 03:51:02;;;;;;;202.73;8.15;;;;;;;20.15;48.75;100699.59;7292956;19;129636;-41
2024/01/27 03:53:28;;;;;;;178.88;6.95;;;;;;;19.99;49.01;100683.28;7296114;19;131118;-42
2024/01/27 03:55:54;;;;;;;188.98;8.00;;;;;;;20.15;48.96;100707.44;7296042;19;131436;-42
2024/01/27 03:58:19;;;;;;;182.45;7.30;;;;;;;20.07;49.19;100691.41;7298057;19;131876;-38
2024/01/27 04:00:45;;;;;;;196.05;7.85;;;;;;;20.19;48.86;100706.28;7293242;19;129620;-38
2024/01/27 04:03:10;;;;;;;162.18;6.28;;;;;;;20.23;48.80;100707.78;7296275;19;129379;-44
2024/01/27 04:05:36;;;;;;;204.02;8.27;;;;;;;20.14;48.59;100701.38;7297978;19;134257;-41
2024/01/27 04:08:02;;;;;;;197.38;7.95;;;;;;;20.21;48.69;100715.69;7296633;19;130325;-38
2024/01/27 04:10:27;;;;;;;197.18;7.78;;;;;;;20.22;48.94;100719.13;7293830;19;130018;-40
2024/01/27 04:12:52;;;;;;;229.38;9.88;;;;;;;20.22;48.97;100714.75;7296740;19;131275;-41
2024/01/27 04:15:18;;;;;;;166.95;6.55;;;;;;;20.25;48.98;100718.94;7297676;19;130789;-43
2024/01/27 04:17:43;;;;;;;142.07;5.68;;;;;;;20.24;48.22;100712.03;7296395;19;130306;-44
2024/01/27 04:20:09;;;;;;;209.70;8.30;;;;;;;20.25;48.35;100713.72;7293295;19;129234;-40
2024/01/27 04:22:35;;;;;;;271.40;10.53;;;;;;;20.21;48.42;100725.31;7296841;19;129928;-44
2024/01/27 04:25:00;;;;;;;186.48;7.85;;;;;;;20.21;48.82;100733.16;7296812;19;130102;-42
2024/01/27 04:27:29;;;;;;;148.82;5.97;;;;;;;20.18;48.59;100712.47;7294709;19;129341;-43
2024/01/27 04:29:55;;;;;;;213.70;8.52;;;;;;;20.19;48.33;100719.34;7293912;19;129828;-43
2024/01/27 04:32:21;;;;;;;214.20;8.48;;;;;;;20.09;48.74;100698.22;7293880;19;131487;-44
2024/01/27 04:34:47;;;;;;;198.77;7.57;;;;;;;20.23;49.85;100733.88;7286780;19;130696;-38
2024/01/27 04:37:12;;;;;;;244.40;9.98;;;;;;;20.19;50.21;100740.25;7295991;19;130431;-39
2024/01/27 04:39:37;;;;;;;236.68;9.27;;;;;;;20.08;50.08;100737.50;7294455;19;130126;-40
2024/01/27 04:42:03;;;;;;;222.13;9.00;;;;;;;20.04;49.88;100736.84;7295108;19;131519;-41
2024/01/27 04:44:29;;;;;;;199.02;7.93;;;;;;;20.29;49.39;100734.31;7296342;19;130338;-40
2024/01/27 04:46:54;;;;;;;208.05;8.25;;;;;;;20.41;49.26;100735.25;7296181;19;129663;-39
2024/01/27 04:49:19;;;;;;;256.75;10.15;;;;;;;20.76;48.48;100733.63;7294270;19;130538;-37
2024/01/27 04:51:45;;;;;;;134.68;5.45;;;;;;;20.90;48.36;100733.53;7295594;19;131252;-39
2024/01/27 04:54:10;;;;;;;139.02;5.55;;;;;;;21.14;47.67;100737.03;7295227;19;131047;-45
2024/01/27 04:56:36;;;;;;;201.63;7.82;;;;;;;21.88;46.11;100737.69;7295042;19;129328;-41
2024/01/27 04:59:02;;;;;;;263.67;10.47;;;;;;;22.26;44.56;100747.09;7291855;19;129081;-40
2024/01/27 05:01:27;;;;;;;180.85;7.07;;;;;;;21.77;45.08;100749.91;7291145;19;130427;-42
2024/01/27 05:03:52;;;;;;;234.70;9.38;;;;;;;21.58;45.29;100729.47;7292649;19;133329;-40
2024/01/27 05:06:18;;;;;;;261.17;10.65;;;;;;;21.77;44.88;100752.53;7291727;19;131522;-39
2024/01/27 05:08:44;;;;;;;173.90;7.10;;;;;;;21.67;44.41;100730.56;7294808;19;130248;-43
2024/01/27 05:11:09;;;;;;;152.45;5.97;;;;;;;22.27;43.89;100760.06;7292550;19;130968;-39
2024/01/27 05:13:35;;;;;;;176.80;6.85;;;;;;;23.21;41.98;100758.81;7293128;19;129684;-41
2024/01/27 05:16:00;;;;;;;287.83;11.43;;;;;;;23.40;41.73;100761.69;7294039;19;131208;-40
2024/01/27 05:18:26;;;;;;;217.60;8.75;;;;;;;23.15;41.73;100743.56;7294436;19;129304;-41
2024/01/27 05:20:51;;;;;;;146.27;5.63;;;;;;;23.18;42.39;100773.03;7294208;19;129557;-37
2024/01/27 05:23:17;;;;;;;170.20;6.63;;;;;;;23.05;42.53;100776.72;7293501;19;129662;-41
2024/01/27 05:25:42;;;;;;;217.77;8.70;;;;;;;22.76;43.56;100773.75;7295734;19;130481;-42
2024/01/27 05:28:07;;;;;;;153.60;6.63;;;;;;;22.54;44.01;100773.75;7294295;19;129171;-40
2024/01/27 05:30:33;;;;;;;182.10;7.00;;;;;;;22.40;44.73;100786.16;7291964;19;129613;-41
2024/01/27 05:32:58;;;;;;;323.60;12.63;;;;;;;22.24;44.65;100785.66;7291097;19;130232;-40
2024/01/27 05:35:23;;;;;;;225.85;8.57;;;;;;;22.06;45.08;100787.03;7294658;19;130229;-43
2024/01/27 05:37:50;;;;;;;176.63;6.80;;;;;;;21.92;45.92;100796.75;7294445;19;130041;-43
2024/01/27 05:40:16;;;;;;;176.98;6.95;;;;;;;21.60;46.58;100798.22;7292222;19;130745;-39
2024/01/27 05:42:42;;;;;;;231.90;9.32;;;;;;;21.17;46.77;100796.97;7294848;19;130260;-39
2024/01/27 05:45:10;;;;;;;209.60;8.45;;;;;;;20.93;47.20;100796.03;7293341;19;130788;-44
2024/01/27 05:47:35;;;;;;;196.77;8.00;;;;;;;20.81;47.72;100799.50;7291581;19;131490;-40
2024/01/27 05:50:00;;;;;;;135.27;5.35;;;;;;;20.50;47.82;100773.78;7292827;19;129614;-43
2024/01/27 05:52:26;;;;;;;186.60;7.43;;;;;;;20.56;48.41;100799.53;7292467;19;130134;-41
2024/01/27 05:54:52;;;;;;;186.18;7.57;;;;;;;20.35;48.95;100785.28;7294763;19;128982;-41
2024/01/27 05:57:17;;;;;;;212.23;8.90;;;;;;;20.45;48.89;100815.06;7293478;19;129109;-40
2024/01/27 05:59:42;;;;;;;220.93;9.07;;;;;;;20.42;48.74;100802.22;7289034;19;129212;-38
2024/01/27 06:02:08;;;;;;;239.43;9.70;;;;;;;20.36;49.36;100807.84;7291890;19;131102;-40
2024/01/27 06:04:34;;;;;;;184.10;7.40;;;;;;;20.48;48.90;100817.47;7294829;19;133434;-39
2024/01/27 06:07:00;;;;;;;188.50;7.80;;;;;;;20.57;48.78;100814.25;7292570;19;130542;-40
2024/01/27 06:09:25;;;;;;;192.43;7.73;;;;;;;20.57;48.65;100809.03;7291911;19;129741;-39
2024/01/27 06:11:51;;;;;;;236.73;9.35;;;;;;;20.50;48.74;100819.03;7291023;19;131456;-39
2024/01/27 06:14:16;;;;;;;176.57;7.18;;;;;;;20.46;49.57;100819.38;7293685;19;130463;-40
2024/01/27 06:16:41;;;;;;;167.35;6.78;;;;;;;20.26;49.19;100791.13;7288707;19;130871;-39
2024/01/27 06:19:06;;;;;;;218.23;8.60;;;;;;;20.22;49.83;100792.25;7291595;19;129842;-39
2024/01/27 06:21:32;;;;;;;245.50;9.52;;;;;;;20.31;49.57;100821.19;7290124;19;130639;-40
2024/01/27 06:23:57;;;;;;;158.07;6.40;;;;;;;20.28;49.79;100825.81;7293164;19;133398;-42
2024/01/27 06:26:22;;;;;;;173.35;7.10;;;;;;;20.24;49.98;100829.56;7292395;19;130248;-42
2024/01/27 06:28:48;;;;;;;184.07;7.30;;;;;;;20.19;50.43;100826.41;7292046;19;131915;-41
2024/01/27 06:31:15;;;;;;;259.67;10.50;;;;;;;20.18;50.06;100840.41;7289340;19;130200;-39
2024/01/27 06:33:40;;;;;;;199.13;7.72;;;;;;;20.12;50.72;100835.53;7291363;19;131022;-43
2024/01/27 06:36:08;;;;;;;177.13;7.30;;;;;;;19.99;50.18;100821.59;7291478;19;129545;-42
2024/01/27 06:38:33;;;;;;;208.48;8.27;;;;;;;20.22;50.38;100844.47;7291656;19;129833;-36
2024/01/27 06:40:58;;;;;;;203.75;8.05;;;;;;;20.29;49.77;100848.38;7291072;19;129352;-43
2024/01/27 06:43:24;;;;;;;194.48;7.45;;;;;;;20.34;48.78;100851.50;7284953;19;130358;-43
2024/01/27 06:45:49;;;;;;;190.52;7.75;;;;;;;20.39;48.73;100858.13;7292854;19;131667;-39
2024/01/27 06:48:14;;;;;;;273.40;11.20;;;;;;;20.26;48.41;100830.28;7288393;19;132874;-41
2024/01/27 06:50:40;;;;;;;198.77;7.80;;;;;;;20.40;49.01;100851.94;7291338;19;130877;-42
2024/01/27 06:53:05;;;;;;;110.18;4.80;;;;;;;20.42;48.29;100851.84;7287649;19;130603;-42
2024/01/27 06:55:30;;;;;;;156.25;6.13;;;;;;;20.46;48.26;100856.75;7292004;19;129287;-43
2024/01/27 06:57:56;;;;;;;240.60;9.35;;;;;;;20.43;48.52;100869.16;7289677;19;129149;-39
2024/01/27 07:00:21;;;;;;;225.18;8.82;;;;;;;20.47;48.58;100875.88;7289455;19;130133;-44
2024/01/27 07:02:47;;;;;;;304.35;12.52;;;;;;;20.29;48.65;100858.81;7287351;19;130209;-39
2024/01/27 07:05:14;;;;;;;133.68;5.55;;;;;;;20.37;49.58;100882.66;7287783;19;130563;-43
2024/01/27 07:07:39;;;;;;;;;;;;;;;20.36;50.78;100879.19;7287731;19;129224;-41
2024/01/27 07:10:07;;;;;;;191.60;7.88;;;;;;;20.34;49.19;100882.84;7289316;19;131210;-38
2024/01/27 07:12:33;;;;;;;173.52;7.13;;;;;;;20.29;49.77;100901.44;7292607;19;130340;-44
2024/01/27 07:14:59;;;;;;;199.00;8.27;;;;;;;20.21;49.67;100901.06;7297223;19;129778;-39
2024/01/27 07:17:26;;;;;;;261.73;10.30;;;;;;;20.22;49.22;100901.91;7295605;19;129088;-45
2024/01/27 07:19:51;;;;;;;;;;;;;;;20.05;49.96;100891.69;7299182;19;132339;-41
2024/01/27 07:22:17;;;;;;;186.52;7.78;;;;;;;20.24;49.36;100910.50;7295658;19;131035;-37
2024/01/27 07:24:42;;;;;;;154.20;6.18;;;;;;;20.15;49.53;100909.31;7297185;19;129633;-39
2024/01/27 07:27:11;;;;;;;184.55;7.72;;;;;;;20.22;49.62;100914.97;7295846;19;130468;-45
2024/01/27 07:29:37;;;;;;;217.48;8.88;;;;;;;20.25;50.07;100914.78;7294144;19;130772;-40
2024/01/27 07:32:03;;;;;;;174.48;7.15;;;;;;;20.28;49.94;100919.81;7292564;19;131645;-43
2024/01/27 07:34:28;;;;;;;184.20;7.35;;;;;;;20.28;49.78;100925.03;7291773;19;129710;-43
2024/01/27 07:36:53;;;;;;;259.75;10.15;;;;;;;20.24;49.89;100931.38;7296107;19;129642;-40
2024/01/27 07:39:18;;;;;;;245.02;9.75;;;;;;;20.29;49.65;100918.88;7295726;19;129177;-39
2024/01/27 07:41:44;;;;;;;189.95;7.95;;;;;;;20.29;49.57;100922.34;7291293;19;130550;-41
2024/01/27 07:44:11;;;;;;;198.18;8.07;;;;;;;20.24;49.93;100916.56;7295170;19;132846;-39
2024/01/27 07:46:41;;;;;;;196.88;7.88;;;;;;;20.09;49.58;100908.84;7295928;19;131732;-42
2024/01/27 07:49:07;;;;;;;137.45;5.68;;;;;;;20.08;50.06;100909.78;7296619;19;131020;-40
2024/01/27 07:51:33;;;;;;;188.50;7.63;;;;;;;19.99;50.01;100899.91;7294342;19;129330;-40
2024/01/27 07:53:59;;;;;;;173.90;6.93;;;;;;;20.05;50.39;100912.56;7296361;19;133004;-43
2024/01/27 07:56:25;;;;;;;229.05;9.43;;;;;;;20.03;49.57;100917.88;7295798;19;132147;-40
2024/01/27 07:58:50;;;;;;;183.68;7.35;;;;;;;20.05;49.47;100923.84;7296101;19;130060;-38
2024/01/27 08:01:16;;;;;;;217.00;8.90;;;;;;;20.08;49.53;100920.22;7294236;19;131282;-38
2024/01/27 08:03:42;;;;;;;194.38;7.78;;;;;;;20.08;50.08;100930.66;7296785;19;131668;-40
2024/01/27 08:06:14;;;;;;;248.15;9.75;;;;;;;20.08;49.95;100941.94;7295517;19;130098;-40
2024/01/27 08:08:40;;;;;;;183.48;7.38;;;;;;;20.10;49.73;100936.59;7295809;19;130614;-40
2024/01/27 08:11:05;;;;;;;165.75;6.45;;;;;;;20.22;49.24;100934.09;7292264;19;130296;-42
2024/01/27 08:13:31;;;;;;;212.15;8.57;;;;;;;20.46;49.13;100942.13;7294580;19;131600;-42
2024/01/27 08:15:56;;;;;;;218.13;8.95;;;;;;;20.47;49.01;100946.41;7295743;19;130283;-38
2024/01/27 08:18:21;;;;;;;172.90;7.07;;;;;;;20.47;49.05;100949.03;7293746;19;129452;-38
2024/01/27 08:20:46;;;;;;;193.80;7.68;;;;;;;20.46;49.46;100949.97;7292705;19;130262;-38
2024/01/27 08:23:12;;;;;;;211.20;8.63;;;;;;;20.48;49.23;100948.06;7292167;19;129479;-42
2024/01/27 08:25:39;;;;;;;194.40;7.68;;;;;;;20.50;49.13;100961.88;7294990;19;130312;-43
2024/01/27 08:28:05;;;;;;;216.80;8.90;;;;;;;20.46;48.84;100966.47;7294596;19;130800;-41
2024/01/27 08:30:30;;;;;;;185.10;7.50;;;;;;;20.44;49.38;100962.28;7294038;19;133205;-38
2024/01/27 08:32:55;;;;;;;188.77;7.38;;;;;;;20.41;49.52;100968.53;7294897;19;129865;-38
2024/01/27 08:35:21;;;;;;;168.35;7.03;;;;;;;20.37;49.93;100967.06;7294371;19;129088;-38
2024/01/27 08:37:46;;;;;;;198.38;8.20;;;;;;;20.38;49.70;100983.56;7294522;19;130313;-38
2024/01/27 08:40:13;;;;;;;236.63;9.35;;;;;;;20.36;49.85;100986.28;7292551;19;130380;-38
2024/01/27 08:42:39;;;;;;;256.52;10.35;;;;;;;20.21;50.37;100978.59;7292432;19;129353;-38
2024/01/27 08:45:06;;;;;;;214.17;8.40;;;;;;;19.94;49.96;100957.63;7295372;19;129986;-40
2024/01/27 08:47:31;;;;;;;;;;;;;;;20.01;51.09;100973.75;7288105;19;131655;-40
2024/01/27 08:49:57;;;;;;;200.35;7.80;;;;;;;20.07;49.95;100991.63;7288345;19;130799;-35
2024/01/27 08:52:22;;;;;;;254.70;10.10;;;;;;;19.87;50.10;100969.38;7290559;19;129907;-39
2024/01/27 08:54:47;;;;;;;228.33;9.43;;;;;;;20.04;50.63;100999.66;7293530;19;129191;-40
2024/01/27 08:57:13;;;;;;;300.02;12.27;;;;;;;20.01;50.29;101011.16;7292407;19;130766;-41
2024/01/27 08:59:38;;;;;;;150.98;6.55;;;;;;;19.99;50.80;101012.16;7292660;19;131694;-39
2024/01/27 09:02:03;;;;;;;186.98;7.20;;;;;;;19.91;50.19;100998.75;7291425;19;129582;-35
2024/01/27 09:04:29;;;;;;;204.93;8.50;;;;;;;19.99;50.73;101017.38;7294596;19;130172;-37
2024/01/27 09:06:54;;;;;;;207.68;8.60;;;;;;;20.00;50.29;101025.09;7293145;19;130173;-38
2024/01/27 09:09:19;;;;;;;235.60;9.57;;;;;;;19.99;50.46;101028.66;7293731;19;129036;-40
2024/01/27 09:11:46;;;;;;;227.98;9.30;;;;;;;20.07;50.13;101036.00;7291190;19;130069;-40
2024/01/27 09:14:11;;;;;;;196.00;8.07;;;;;;;20.08;50.40;101027.25;7292553;19;132692;-39
2024/01/27 09:16:37;;;;;;;193.43;7.88;;;;;;;19.91;50.21;100993.53;7293805;19;130358;-40
2024/01/27 09:19:02;;;;;;;167.43;6.88;;;;;;;20.08;49.80;101019.44;7292480;19;130765;-40
2024/01/27 09:21:32;;;;;;;226.45;9.13;;;;;;;20.09;50.30;101029.78;7292363;19;129846;-41
2024/01/27 09:23:58;;;;;;;188.60;7.80;;;;;;;20.11;50.08;101027.06;7294757;19;129978;-40
2024/01/27 09:26:23;;;;;;;166.45;7.10;;;;;;;19.96;50.20;101020.19;7293166;19;132173;-39
2024/01/27 09:28:58;;;;;;;215.30;9.07;;;;;;;20.08;50.48;101038.53;7290830;19;130144;-36
2024/01/27 09:31:24;;;;;;;274.55;11.55;;;;;;;20.05;50.81;101036.09;7291937;19;129406;-38
2024/01/27 09:33:52;;;;;;;189.93;7.95;;;;;;;20.03;50.66;101034.53;7293073;19;131154;-38
2024/01/27 09:36:18;;;;;;;216.90;9.07;;;;;;;20.03;50.62;101035.34;7291305;19;130233;-34
2024/01/27 09:38:43;;;;;;;136.43;5.63;;;;;;;20.01;51.01;101042.47;7292099;19;132674;-37
2024/01/27 09:41:09;;;;;;;230.52;9.45;;;;;;;19.94;51.52;101037.69;7291290;19;130808;-41
2024/01/27 09:43:37;;;;;;;202.37;8.37;;;;;;;19.89;50.91;101047.59;7293393;19;131727;-39
2024/01/27 09:46:02;;;;;;;159.65;6.82;;;;;;;19.88;51.84;101040.69;7291584;19;131774;-37
2024/01/27 09:48:29;;;;;;;203.65;8.95;;;;;;;19.90;53.13;101044.06;7292721;19;134165;-41
2024/01/27 09:50:58;;;;;;;269.13;11.18;;;;;;;19.80;53.18;101022.88;7291556;19;129693;-37
2024/01/27 09:53:23;;;;;;;247.68;10.88;;;;;;;19.90;52.94;101036.22;7291956;19;130285;-38
2024/01/27 09:55:50;;;;;;;195.07;8.55;;;;;;;19.93;52.90;101043.88;7290649;19;130658;-37
2024/01/27 09:58:15;;;;;;;208.65;9.45;;;;;;;19.97;51.36;101043.56;7290746;19;131411;-40
2024/01/27 10:00:41;;;;;;;251.40;10.30;;;;;;;20.02;51.34;101046.75;7291424;19;132783;-41
2024/01/27 10:03:08;;;;;;;184.80;7.80;;;;;;;20.02;50.96;101043.28;7293200;19;131668;-41
2024/01/27 10:05:35;;;;;;;170.27;7.43;;;;;;;19.83;50.43;101012.28;7292116;19;134194;-39
2024/01/27 10:08:00;;;;;;;224.13;9.50;;;;;;;20.03;50.40;101050.22;7292175;19;130356;-40
2024/01/27 10:10:26;;;;;;;274.20;11.43;;;;;;;20.03;50.74;101055.44;7291197;19;133168;-37
2024/01/27 10:12:53;;;;;;;190.27;7.72;;;;;;;20.01;50.74;101049.44;7293339;19;130305;-38
2024/01/27 10:15:23;;;;;;;188.57;8.27;;;;;;;19.99;50.58;101043.47;7291033;19;131481;-41
2024/01/27 10:17:49;;;;;;;175.80;7.38;;;;;;;20.01;50.57;101044.22;7291047;19;131168;-40
2024/01/27 10:20:18;;;;;;;174.50;7.50;;;;;;;19.99;49.92;101043.47;7290419;19;129730;-35
2024/01/27 10:22:45;;;;;;;217.85;9.93;;;;;;;20.11;49.66;101032.28;7292651;19;129804;-41
2024/01/27 10:25:11;;;;;;;182.52;7.88;;;;;;;20.17;49.56;101024.94;7291585;19;131301;-38
2024/01/27 10:27:36;;;;;;;182.53;7.67;;;;;;;20.21;49.67;101038.66;7290992;19;130533;-37
2024/01/27 10:30:03;;;;;;;256.63;10.43;;;;;;;20.26;49.85;101039.22;7289924;19;130238;-40
2024/01/27 10:32:29;;;;;;;189.30;8.15;;;;;;;20.23;50.36;101036.78;7292843;19;131976;-38
2024/01/27 10:35:05;;;;;;;171.70;7.13;;;;;;;20.19;49.97;101040.50;7290246;19;131166;-40
2024/01/27 10:37:31;;;;;;;125.72;5.57;;;;;;;20.23;50.01;101047.25;7289989;19;131881;-38
2024/01/27 10:40:07;;;;;;;234.25;9.85;;;;;;;20.28;50.42;101037.34;7291635;19;130444;-40
2024/01/27 10:42:34;;;;;;;260.73;10.93;;;;;;;20.27;50.22;101043.47;7291471;19;129059;-37
2024/01/27 10:45:00;;;;;;;187.35;8.02;;;;;;;20.27;49.72;101038.25;7291275;19;129642;-37
2024/01/27 10:47:30;;;;;;;212.10;8.63;;;;;;;20.26;50.05;101041.81;7289131;19;131179;-40
2024/01/27 10:50:00;;;;;;;172.93;7.20;;;;;;;20.21;50.25;101046.50;7291400;19;130263;-41
2024/01/27 10:52:30;;;;;;;272.48;10.93;;;;;;;20.15;50.65;101049.47;7290971;19;129786;-37
2024/01/27 10:55:03;;;;;;;185.68;7.72;;;;;;;20.02;50.53;101053.72;7291333;19;132561;-40